createdAt,value
2023-05-14T00:00:04.103Z,78.47
2023-05-14T00:02:30.740Z,79.20
2023-05-14T00:04:57.307Z,78.20
2023-05-14T00:07:23.857Z,79.38
2023-05-14T00:09:50.305Z,80.04
2023-05-14T00:12:16.777Z,80.50
2023-05-14T00:14:43.238Z,81.57
2023-05-14T00:17:09.740Z,80.32
2023-05-14T00:19:36.539Z,80.74
2023-05-14T00:22:03.010Z,82.03
2023-05-14T00:24:29.452Z,82.00
2023-05-14T00:26:56.276Z,82.48
2023-05-14T00:29:22.731Z,82.60
2023-05-14T00:31:49.334Z,82.94
2023-05-14T00:34:15.959Z,82.76
2023-05-14T00:36:42.545Z,84.27
2023-05-14T00:39:09.134Z,84.47
2023-05-14T00:41:35.916Z,84.72
2023-05-14T00:44:02.436Z,84.22
2023-05-14T00:46:29.030Z,85.11
2023-05-14T00:48:55.929Z,84.46
2023-05-14T00:51:22.471Z,85.05
2023-05-14T00:53:49.566Z,85.24
2023-05-14T00:56:16.663Z,84.86
2023-05-14T00:58:43.141Z,85.67
2023-05-14T01:01:10.003Z,85.36
2023-05-14T01:03:36.851Z,85.92
2023-05-14T01:06:15.462Z,86.31
2023-05-14T01:08:44.894Z,87.19
2023-05-14T01:11:29.064Z,87.07
2023-05-14T01:14:22.750Z,88.27
2023-05-14T01:16:52.696Z,88.92
2023-05-14T01:19:38.644Z,88.92
2023-05-14T01:22:05.555Z,88.24
2023-05-14T01:24:32.076Z,88.27
2023-05-14T01:27:15.086Z,91.28
2023-05-14T01:29:48.689Z,92.77
2023-05-14T01:32:17.697Z,93.78
2023-05-14T01:34:47.242Z,93.44
2023-05-14T01:37:13.982Z,95.12
2023-05-14T01:39:42.091Z,97.22
2023-05-14T01:42:09.175Z,97.23
2023-05-14T01:44:36.355Z,97.26
2023-05-14T01:47:03.501Z,98.03
2023-05-14T01:49:30.038Z,99.15
2023-05-14T01:51:56.525Z,98.08
2023-05-14T01:54:23.265Z,99.47
2023-05-14T01:56:49.961Z,98.88
2023-05-14T01:59:16.414Z,97.53
2023-05-14T02:01:43.209Z,96.74
2023-05-14T02:04:09.832Z,98.01
2023-05-14T02:06:36.350Z,97.13
2023-05-14T02:09:05.367Z,98.99
2023-05-14T02:11:31.802Z,100.00
2023-05-14T02:13:58.237Z,100.00
2023-05-14T02:16:24.756Z,100.00
2023-05-14T02:18:51.342Z,100.00
2023-05-14T02:21:17.842Z,100.00
2023-05-14T02:23:44.415Z,100.00
2023-05-14T02:26:11.457Z,100.00
2023-05-14T02:28:38.139Z,100.00
2023-05-14T02:31:04.681Z,100.00
2023-05-14T02:33:31.362Z,100.00
2023-05-14T02:35:57.890Z,100.00
2023-05-14T02:38:24.365Z,100.00
2023-05-14T02:40:50.801Z,100.00
2023-05-14T02:43:17.317Z,100.00
2023-05-14T02:45:44.139Z,100.00
2023-05-14T02:48:10.714Z,100.00
2023-05-14T02:50:37.239Z,100.00
2023-05-14T02:53:03.797Z,100.00
2023-05-14T02:55:30.355Z,100.00
2023-05-14T02:57:56.933Z,100.00
2023-05-14T03:00:24.249Z,100.00
2023-05-14T03:02:51.313Z,100.00
2023-05-14T03:05:18.542Z,100.00
2023-05-14T03:07:45.028Z,100.00
2023-05-14T03:10:12.147Z,100.00
2023-05-14T03:12:38.712Z,100.00
2023-05-14T03:15:05.545Z,100.00
2023-05-14T03:17:31.914Z,100.00
2023-05-14T03:19:58.410Z,100.00
2023-05-14T03:22:25.114Z,100.00
2023-05-14T03:24:51.518Z,100.00
2023-05-14T03:27:17.928Z,100.00
2023-05-14T03:29:44.370Z,100.00
2023-05-14T03:32:10.824Z,100.00
2023-05-14T03:34:37.268Z,100.00
2023-05-14T03:37:04.077Z,100.00
2023-05-14T03:39:30.482Z,100.00
2023-05-14T03:41:58.835Z,100.00
2023-05-14T03:44:25.715Z,100.00
2023-05-14T03:46:52.089Z,100.00
2023-05-14T03:49:18.865Z,100.00
2023-05-14T03:51:45.374Z,100.00
2023-05-14T03:54:11.902Z,100.00
2023-05-14T03:56:38.352Z,100.00
2023-05-14T03:59:04.785Z,100.00
2023-05-14T04:01:31.163Z,100.00
2023-05-14T04:03:57.838Z,100.00
2023-05-14T04:06:24.503Z,100.00
2023-05-14T04:08:50.973Z,100.00
2023-05-14T04:11:17.448Z,100.00
2023-05-14T04:13:43.994Z,100.00
2023-05-14T04:16:10.567Z,100.00
2023-05-14T04:18:37.131Z,100.00
2023-05-14T04:21:03.650Z,100.00
2023-05-14T04:23:31.763Z,100.00
2023-05-14T04:25:58.788Z,100.00
2023-05-14T04:28:25.423Z,100.00
2023-05-14T04:30:52.498Z,100.00
2023-05-14T04:33:18.998Z,100.00
2023-05-14T04:35:46.756Z,100.00
2023-05-14T04:38:14.233Z,100.00
2023-05-14T04:40:41.519Z,100.00
2023-05-14T04:43:08.167Z,100.00
2023-05-14T04:45:34.734Z,100.00
2023-05-14T04:48:02.097Z,100.00
2023-05-14T04:50:28.742Z,100.00
2023-05-14T04:52:55.855Z,100.00
2023-05-14T04:55:22.982Z,100.00
2023-05-14T04:57:49.502Z,100.00
2023-05-14T05:00:17.396Z,100.00
2023-05-14T05:02:43.957Z,100.00
2023-05-14T05:05:10.665Z,100.00
2023-05-14T05:07:37.043Z,100.00
2023-05-14T05:10:03.662Z,100.00
2023-05-14T05:12:30.446Z,100.00
2023-05-14T05:14:57.846Z,100.00
2023-05-14T05:17:25.454Z,100.00
2023-05-14T05:19:52.720Z,100.00
2023-05-14T05:22:20.165Z,100.00
2023-05-14T05:24:48.038Z,100.00
2023-05-14T05:27:15.762Z,100.00
2023-05-14T05:29:42.310Z,100.00
2023-05-14T05:32:08.826Z,100.00
2023-05-14T05:34:36.201Z,100.00
2023-05-14T05:37:03.275Z,100.00
2023-05-14T05:39:34.639Z,100.00
2023-05-14T05:42:04.806Z,100.00
2023-05-14T05:44:31.477Z,100.00
2023-05-14T05:46:58.128Z,100.00
2023-05-14T05:49:24.745Z,100.00
2023-05-14T05:51:51.140Z,100.00
2023-05-14T05:54:17.781Z,100.00
2023-05-14T05:56:44.384Z,100.00
2023-05-14T05:59:10.845Z,100.00
2023-05-14T06:01:37.380Z,100.00
2023-05-14T06:04:06.264Z,100.00
2023-05-14T06:06:33.030Z,100.00
2023-05-14T06:08:59.479Z,100.00
2023-05-14T06:11:26.621Z,100.00
2023-05-14T06:13:53.195Z,100.00
2023-05-14T06:16:19.729Z,100.00
2023-05-14T06:18:46.637Z,100.00
2023-05-14T06:21:13.217Z,100.00
2023-05-14T06:23:40.217Z,100.00
2023-05-14T06:26:06.817Z,100.00
2023-05-14T06:28:33.229Z,100.00
2023-05-14T06:30:59.754Z,100.00
2023-05-14T06:33:30.891Z,100.00
2023-05-14T06:36:04.068Z,100.00
2023-05-14T06:38:30.611Z,100.00
2023-05-14T06:40:57.013Z,100.00
2023-05-14T06:43:23.601Z,100.00
2023-05-14T06:45:50.932Z,100.00
2023-05-14T06:48:21.321Z,100.00
2023-05-14T06:50:48.916Z,100.00
2023-05-14T06:53:15.868Z,100.00
2023-05-14T06:55:42.286Z,100.00
2023-05-14T06:58:09.059Z,100.00
2023-05-14T07:00:35.760Z,100.00
2023-05-14T07:03:02.256Z,100.00
2023-05-14T07:05:29.068Z,100.00
2023-05-14T07:07:55.613Z,100.00
2023-05-14T07:10:22.381Z,100.00
2023-05-14T07:12:49.651Z,100.00
2023-05-14T07:15:16.183Z,100.00
2023-05-14T07:17:43.016Z,100.00
2023-05-14T07:20:10.109Z,100.00
2023-05-14T07:22:36.674Z,100.00
2023-05-14T07:25:03.300Z,99.87
2023-05-14T07:27:30.106Z,98.55
2023-05-14T07:29:56.600Z,95.98
2023-05-14T07:32:25.142Z,94.63
2023-05-14T07:34:51.722Z,95.73
2023-05-14T07:37:18.495Z,96.35
2023-05-14T07:39:44.935Z,94.16
2023-05-14T07:42:13.737Z,93.36
2023-05-14T07:44:46.064Z,94.99
2023-05-14T07:47:12.603Z,95.53
2023-05-14T07:49:39.055Z,93.86
2023-05-14T07:52:05.676Z,95.14
2023-05-14T07:54:32.098Z,92.85
2023-05-14T07:56:58.569Z,95.72
2023-05-14T07:59:25.111Z,94.67
2023-05-14T08:01:51.821Z,94.58
2023-05-14T08:04:18.253Z,95.73
2023-05-14T08:06:44.755Z,95.97
2023-05-14T08:09:11.393Z,94.43
2023-05-14T08:11:39.167Z,95.86
2023-05-14T08:14:05.812Z,94.20
2023-05-14T08:16:32.331Z,93.23
2023-05-14T08:18:59.003Z,92.81
2023-05-14T08:21:25.527Z,93.25
2023-05-14T08:23:51.965Z,92.25
2023-05-14T08:26:18.337Z,88.42
2023-05-14T08:28:44.780Z,83.17
2023-05-14T08:31:11.404Z,81.08
2023-05-14T08:33:37.961Z,78.54
2023-05-14T08:36:05.045Z,75.02
2023-05-14T08:38:31.449Z,72.17
2023-05-14T08:41:00.866Z,69.27
2023-05-14T08:43:35.310Z,70.06
2023-05-14T08:46:05.995Z,66.32
2023-05-14T08:48:34.464Z,68.20
2023-05-14T08:51:02.213Z,70.11
2023-05-14T08:53:28.768Z,69.22
2023-05-14T08:55:55.456Z,64.32
2023-05-14T08:58:22.003Z,66.57
2023-05-14T09:00:48.514Z,61.37
2023-05-14T09:03:15.896Z,63.34
2023-05-14T09:05:42.731Z,63.23
2023-05-14T09:08:09.152Z,58.99
2023-05-14T09:10:35.612Z,62.93
2023-05-14T09:13:02.122Z,55.68
2023-05-14T09:15:29.676Z,55.55
2023-05-14T09:17:56.946Z,55.51
2023-05-14T09:20:25.226Z,54.52
2023-05-14T09:22:54.961Z,53.76
2023-05-14T09:25:27.235Z,53.38
2023-05-14T09:27:56.732Z,54.51
2023-05-14T09:30:26.573Z,53.84
2023-05-14T09:32:54.501Z,54.21
2023-05-14T09:35:23.934Z,50.76
2023-05-14T09:37:55.182Z,49.19
2023-05-14T09:40:24.415Z,51.21
2023-05-14T09:42:51.458Z,51.11
2023-05-14T09:45:18.013Z,50.24
2023-05-14T09:47:45.344Z,50.36
2023-05-14T09:50:12.275Z,46.75
2023-05-14T09:52:39.547Z,48.99
2023-05-14T09:55:06.552Z,46.41
2023-05-14T09:57:33.603Z,43.62
2023-05-14T10:00:00.181Z,43.62
2023-05-14T10:02:36.850Z,45.38
2023-05-14T10:05:06.241Z,45.21
2023-05-14T10:07:44.410Z,40.46
2023-05-14T10:10:15.775Z,40.61
2023-05-14T10:12:46.279Z,39.23
2023-05-14T10:15:18.092Z,40.44
2023-05-14T10:17:49.268Z,38.16
2023-05-14T10:20:17.330Z,40.14
2023-05-14T10:22:43.992Z,42.05
2023-05-14T10:25:11.521Z,44.38
2023-05-14T10:27:38.171Z,45.20
2023-05-14T10:30:11.113Z,43.75
2023-05-14T10:32:37.983Z,45.91
2023-05-14T10:35:17.399Z,43.95
2023-05-14T10:37:46.209Z,44.28
2023-05-14T10:40:14.258Z,43.72
2023-05-14T10:42:45.281Z,43.89
2023-05-14T10:45:14.040Z,42.35
2023-05-14T10:47:46.304Z,42.59
2023-05-14T10:50:15.768Z,40.07
2023-05-14T10:52:43.585Z,43.27
2023-05-14T10:55:13.011Z,41.20
2023-05-14T10:57:41.932Z,41.25
2023-05-14T11:00:10.854Z,41.83
2023-05-14T11:02:41.066Z,40.15
2023-05-14T11:07:57.908Z,40.30
2023-05-14T11:10:29.998Z,40.58
2023-05-14T11:13:00.712Z,40.32
2023-05-14T11:15:28.440Z,38.80
2023-05-14T11:17:55.788Z,38.81
2023-05-14T11:20:22.721Z,36.25
2023-05-14T11:22:52.198Z,37.59
2023-05-14T11:25:23.186Z,37.88
2023-05-14T11:27:50.405Z,37.14
2023-05-14T11:30:18.913Z,36.37
2023-05-14T11:32:47.261Z,37.49
2023-05-14T11:35:15.167Z,38.89
2023-05-14T11:37:42.271Z,40.05
2023-05-14T11:40:18.865Z,37.92
2023-05-14T11:42:46.188Z,37.39
2023-05-14T11:45:14.207Z,38.90
2023-05-14T11:47:42.443Z,38.81
2023-05-14T11:50:09.933Z,40.08
2023-05-14T11:52:41.938Z,43.90
2023-05-14T11:55:14.137Z,43.52
2023-05-14T11:57:43.434Z,44.49
2023-05-14T12:00:16.769Z,44.05
2023-05-14T12:02:43.442Z,42.74
2023-05-14T12:05:13.573Z,43.13
2023-05-14T12:07:40.802Z,44.79
2023-05-14T12:10:08.438Z,44.93
2023-05-14T12:12:37.397Z,44.52
2023-05-14T12:15:15.458Z,42.84
2023-05-14T12:17:42.022Z,42.42
2023-05-14T12:20:11.134Z,43.66
2023-05-14T12:22:38.597Z,43.15
2023-05-14T12:25:12.402Z,43.04
2023-05-14T12:27:38.916Z,41.78
2023-05-14T12:32:40.412Z,41.04
2023-05-14T12:35:07.210Z,37.94
2023-05-14T12:37:34.182Z,38.54
2023-05-14T12:40:00.820Z,36.89
2023-05-14T12:42:27.942Z,37.48
2023-05-14T12:44:54.307Z,38.06
2023-05-14T12:47:21.026Z,36.73
2023-05-14T12:49:47.588Z,37.75
2023-05-14T12:54:43.669Z,43.79
2023-05-14T12:57:10.284Z,44.31
2023-05-14T12:59:36.785Z,44.63
2023-05-14T13:02:03.300Z,44.43
2023-05-14T13:04:29.751Z,45.05
2023-05-14T13:06:56.217Z,45.71
2023-05-14T13:09:22.755Z,47.47
2023-05-14T13:11:49.169Z,47.00
2023-05-14T13:14:15.634Z,47.00
2023-05-14T13:16:42.511Z,48.18
2023-05-14T13:19:09.385Z,45.95
2023-05-14T13:21:36.161Z,45.25
2023-05-14T13:24:02.698Z,45.88
2023-05-14T13:26:29.211Z,45.29
2023-05-14T13:28:55.648Z,44.87
2023-05-14T13:31:22.183Z,43.51
2023-05-14T13:33:48.844Z,40.64
2023-05-14T13:36:16.316Z,41.90
2023-05-14T13:38:42.837Z,42.67
2023-05-14T13:41:09.266Z,43.40
2023-05-14T13:43:36.001Z,42.21
2023-05-14T13:46:04.259Z,42.67
2023-05-14T13:48:33.707Z,44.85
2023-05-14T13:51:00.430Z,43.35
2023-05-14T13:53:27.030Z,45.86
2023-05-14T13:55:58.260Z,44.43
2023-05-14T13:58:25.517Z,44.88
2023-05-14T14:00:52.868Z,45.16
2023-05-14T14:03:19.691Z,46.56
2023-05-14T14:05:46.278Z,47.17
2023-05-14T14:08:23.384Z,46.86
2023-05-14T14:10:51.044Z,46.80
2023-05-14T14:13:17.628Z,46.23
2023-05-14T14:15:44.344Z,46.27
2023-05-14T14:18:10.934Z,47.30
2023-05-14T14:20:37.433Z,45.74
2023-05-14T14:23:04.119Z,45.99
2023-05-14T14:25:30.660Z,44.91
2023-05-14T14:27:57.430Z,45.06
2023-05-14T14:30:23.875Z,46.56
2023-05-14T14:32:51.154Z,47.48
2023-05-14T14:35:19.449Z,46.35
2023-05-14T14:37:49.206Z,46.38
2023-05-14T14:40:17.208Z,46.81
2023-05-14T14:42:43.922Z,47.44
2023-05-14T14:45:11.478Z,47.39
2023-05-14T14:47:38.359Z,47.71
2023-05-14T14:50:06.351Z,48.72
2023-05-14T14:52:33.032Z,48.57
2023-05-14T14:54:59.704Z,49.12
2023-05-14T14:57:27.276Z,49.66
2023-05-14T14:59:53.704Z,50.32
2023-05-14T15:02:20.694Z,50.97
2023-05-14T15:04:47.183Z,52.03
2023-05-14T15:07:15.881Z,51.00
2023-05-14T15:09:42.447Z,50.87
2023-05-14T15:12:10.283Z,51.27
2023-05-14T15:14:36.736Z,51.90
2023-05-14T15:17:03.309Z,51.44
2023-05-14T15:19:31.214Z,50.71
2023-05-14T15:21:58.635Z,51.10
2023-05-14T15:24:26.442Z,50.53
2023-05-14T15:26:53.777Z,50.58
2023-05-14T15:29:20.594Z,50.83
2023-05-14T15:31:47.447Z,50.52
2023-05-14T15:34:14.120Z,51.82
2023-05-14T15:36:40.725Z,52.12
2023-05-14T15:39:10.516Z,53.49
2023-05-14T15:41:37.225Z,52.73
2023-05-14T15:44:03.796Z,53.72
2023-05-14T15:46:30.953Z,52.57
2023-05-14T15:48:58.161Z,50.98
2023-05-14T15:51:24.698Z,50.72
2023-05-14T15:53:53.258Z,50.05
2023-05-14T15:56:20.792Z,50.62
2023-05-14T15:58:48.273Z,50.71
2023-05-14T16:01:14.788Z,51.20
2023-05-14T16:03:41.546Z,51.47
2023-05-14T16:06:08.094Z,51.58
2023-05-14T16:08:34.526Z,53.50
2023-05-14T16:11:01.012Z,53.75
2023-05-14T16:13:27.566Z,53.94
2023-05-14T16:15:54.377Z,53.96
2023-05-14T16:18:22.303Z,54.61
2023-05-14T16:20:49.053Z,54.50
2023-05-14T16:23:15.534Z,53.50
2023-05-14T16:25:42.577Z,54.10
2023-05-14T16:28:09.142Z,53.11
2023-05-14T16:30:35.611Z,52.50
2023-05-14T16:33:02.256Z,52.64
2023-05-14T16:35:28.950Z,52.56
2023-05-14T16:37:56.010Z,52.60
2023-05-14T16:40:23.828Z,52.57
2023-05-14T16:42:51.178Z,51.40
2023-05-14T16:45:18.090Z,50.51
2023-05-14T16:47:44.695Z,51.09
2023-05-14T16:50:11.586Z,51.12
2023-05-14T16:52:38.081Z,51.48
2023-05-14T16:55:05.115Z,52.73
2023-05-14T16:57:31.815Z,53.32
2023-05-14T16:59:58.510Z,52.88
2023-05-14T17:02:25.641Z,52.17
2023-05-14T17:04:54.074Z,52.57
2023-05-14T17:07:20.680Z,51.54
2023-05-14T17:09:47.367Z,52.89
2023-05-14T17:12:13.950Z,52.31
2023-05-14T17:14:40.537Z,53.32
2023-05-14T17:17:07.261Z,53.60
2023-05-14T17:19:33.746Z,53.27
2023-05-14T17:22:00.567Z,53.07
2023-05-14T17:24:27.278Z,52.94
2023-05-14T17:26:53.770Z,52.36
2023-05-14T17:29:20.861Z,53.50
2023-05-14T17:31:48.903Z,53.74
2023-05-14T17:34:15.475Z,54.83
2023-05-14T17:36:42.576Z,55.62
2023-05-14T17:39:09.428Z,57.05
2023-05-14T17:41:36.080Z,57.41
2023-05-14T17:44:02.686Z,58.83
2023-05-14T17:46:29.513Z,59.61
2023-05-14T17:48:56.642Z,60.87
2023-05-14T17:51:23.208Z,62.33
2023-05-14T17:53:49.777Z,62.77
2023-05-14T17:56:18.429Z,64.69
2023-05-14T17:58:47.070Z,66.19
2023-05-14T18:01:13.586Z,66.66
2023-05-14T18:03:40.182Z,69.79
2023-05-14T18:06:06.698Z,71.58
2023-05-14T18:08:34.172Z,74.07
2023-05-14T18:11:01.398Z,72.90
2023-05-14T18:13:28.278Z,76.68
2023-05-14T18:15:56.696Z,81.07
2023-05-14T18:18:24.218Z,82.55
2023-05-14T18:20:51.904Z,81.87
2023-05-14T18:23:18.996Z,83.85
2023-05-14T18:25:45.637Z,85.12
2023-05-14T18:28:12.577Z,83.74
2023-05-14T18:30:39.607Z,85.39
2023-05-14T18:33:06.276Z,84.19
2023-05-14T18:35:33.252Z,85.60
2023-05-14T18:37:59.987Z,87.08
2023-05-14T18:40:27.106Z,85.78
2023-05-14T18:42:53.880Z,86.49
2023-05-14T18:45:21.791Z,86.74
2023-05-14T18:47:48.741Z,87.44
2023-05-14T18:50:15.435Z,87.46
2023-05-14T18:52:42.094Z,88.25
2023-05-14T18:55:09.331Z,89.19
2023-05-14T18:57:37.328Z,87.92
2023-05-14T19:00:05.570Z,87.58
2023-05-14T19:02:32.194Z,89.27
2023-05-14T19:04:59.340Z,91.40
2023-05-14T19:07:28.193Z,91.00
2023-05-14T19:09:54.817Z,90.47
2023-05-14T19:12:21.608Z,91.53
2023-05-14T19:14:48.322Z,89.28
2023-05-14T19:17:15.826Z,92.80
2023-05-14T19:19:43.673Z,91.83
2023-05-14T19:22:10.528Z,92.79
2023-05-14T19:24:37.889Z,94.17
2023-05-14T19:27:04.839Z,93.66
2023-05-14T19:29:33.698Z,97.03
2023-05-14T19:32:00.760Z,97.98
2023-05-14T19:34:27.558Z,97.65
2023-05-14T19:36:55.550Z,98.35
2023-05-14T19:39:22.376Z,99.20
2023-05-14T19:41:48.853Z,99.11
2023-05-14T19:44:15.901Z,99.16
2023-05-14T19:46:45.969Z,99.53
2023-05-14T19:49:13.517Z,98.74
2023-05-14T19:51:39.984Z,100.00
2023-05-14T19:54:09.342Z,100.00
2023-05-14T19:56:35.869Z,100.00
2023-05-14T19:59:02.417Z,100.00
2023-05-14T20:01:29.540Z,100.00
2023-05-14T20:03:56.000Z,100.00
2023-05-14T20:06:22.571Z,99.64
2023-05-14T20:08:49.055Z,99.89
2023-05-14T20:11:17.929Z,100.00
2023-05-14T20:13:44.385Z,100.00
2023-05-14T20:16:11.473Z,100.00
2023-05-14T20:18:38.317Z,99.81
2023-05-14T20:21:05.570Z,99.59
2023-05-14T20:23:32.374Z,100.00
2023-05-14T20:26:01.818Z,99.78
2023-05-14T20:28:28.407Z,100.00
2023-05-14T20:30:55.305Z,100.00
2023-05-14T20:33:21.942Z,100.00
2023-05-14T20:35:48.398Z,100.00
2023-05-14T20:38:14.860Z,100.00
2023-05-14T20:40:41.319Z,100.00
2023-05-14T20:43:07.790Z,100.00
2023-05-14T20:45:34.285Z,100.00
2023-05-14T20:48:00.992Z,100.00
2023-05-14T20:50:28.003Z,100.00
2023-05-14T20:52:55.302Z,100.00
2023-05-14T20:55:21.959Z,100.00
2023-05-14T20:57:49.665Z,100.00
2023-05-14T21:00:16.429Z,100.00
2023-05-14T21:02:42.989Z,100.00
2023-05-14T21:05:09.663Z,100.00
2023-05-14T21:07:37.282Z,100.00
2023-05-14T21:10:04.269Z,100.00
2023-05-14T21:12:31.082Z,100.00
2023-05-14T21:14:57.502Z,100.00
2023-05-14T21:17:23.980Z,100.00
2023-05-14T21:19:50.488Z,100.00
2023-05-14T21:22:16.905Z,100.00
2023-05-14T21:24:43.405Z,100.00
2023-05-14T21:27:10.184Z,100.00
2023-05-14T21:29:36.760Z,100.00
2023-05-14T21:32:03.482Z,100.00
2023-05-14T21:34:32.013Z,100.00
2023-05-14T21:36:58.831Z,100.00
2023-05-14T21:39:25.312Z,100.00
2023-05-14T21:41:51.932Z,100.00
2023-05-14T21:44:18.407Z,100.00
2023-05-14T21:46:44.863Z,100.00
2023-05-14T21:49:11.356Z,100.00
2023-05-14T21:51:37.832Z,100.00
2023-05-14T21:54:04.529Z,100.00
2023-05-14T21:56:30.992Z,100.00
2023-05-14T21:58:57.490Z,100.00
2023-05-14T22:01:24.014Z,100.00
2023-05-14T22:03:50.681Z,100.00
2023-05-14T22:06:17.135Z,100.00
2023-05-14T22:08:43.537Z,100.00
2023-05-14T22:11:10.056Z,100.00
2023-05-14T22:13:40.700Z,100.00
2023-05-14T22:16:13.173Z,100.00
2023-05-14T22:18:40.647Z,100.00
2023-05-14T22:21:07.260Z,100.00
2023-05-14T22:23:33.818Z,100.00
2023-05-14T22:26:00.396Z,100.00
2023-05-14T22:28:27.017Z,100.00
2023-05-14T22:30:53.682Z,100.00
2023-05-14T22:33:20.440Z,100.00
2023-05-14T22:35:46.959Z,100.00
2023-05-14T22:38:14.084Z,100.00
2023-05-14T22:40:40.782Z,100.00
2023-05-14T22:43:07.240Z,100.00
2023-05-14T22:45:33.796Z,100.00
2023-05-14T22:48:00.413Z,100.00
2023-05-14T22:50:26.960Z,100.00
2023-05-14T22:52:53.490Z,100.00
2023-05-14T22:55:19.985Z,100.00
2023-05-14T22:57:46.521Z,100.00
2023-05-14T23:00:13.858Z,100.00
2023-05-14T23:02:40.574Z,100.00
2023-05-14T23:05:09.124Z,100.00
2023-05-14T23:07:35.832Z,100.00
2023-05-14T23:10:02.253Z,100.00
2023-05-14T23:12:28.796Z,100.00
2023-05-14T23:14:55.866Z,100.00
2023-05-14T23:17:22.336Z,100.00
2023-05-14T23:19:49.202Z,100.00
2023-05-14T23:22:15.763Z,100.00
2023-05-14T23:24:42.308Z,100.00
2023-05-14T23:27:08.941Z,100.00
2023-05-14T23:29:35.617Z,100.00
2023-05-14T23:32:02.122Z,100.00
2023-05-14T23:34:28.697Z,100.00
2023-05-14T23:36:55.339Z,100.00
2023-05-14T23:39:21.914Z,100.00
2023-05-14T23:41:48.352Z,100.00
2023-05-14T23:44:15.359Z,100.00
2023-05-14T23:46:41.966Z,100.00
2023-05-14T23:49:08.481Z,100.00
2023-05-14T23:51:35.180Z,100.00
2023-05-14T23:54:01.679Z,100.00
2023-05-14T23:56:29.239Z,100.00
2023-05-14T23:58:56.007Z,100.00
